sensor_id;sensor_type;location;lat;lon;timestamp;pressure;altitude;pressure_sealevel;temperature;humidity
68807;BME280;55800;54.272;18.558;2023-05-02T00:01:14;100661.81;;;8.08;42.73
68807;BME280;55800;54.272;18.558;2023-05-02T00:03:43;100657.44;;;8.05;42.76
68807;BME280;55800;54.272;18.558;2023-05-02T00:06:12;100652.13;;;8.05;42.61
68807;BME280;55800;54.272;18.558;2023-05-02T00:08:41;100653.00;;;8.06;42.39
68807;BME280;55800;54.272;18.558;2023-05-02T00:11:10;100656.56;;;8.05;42.66
68807;BME280;55800;54.272;18.558;2023-05-02T00:13:42;100655.81;;;8.01;42.64
68807;BME280;55800;54.272;18.558;2023-05-02T00:16:11;100651.44;;;7.99;42.46
68807;BME280;55800;54.272;18.558;2023-05-02T00:18:40;100646.13;;;7.99;42.68
68807;BME280;55800;54.272;18.558;2023-05-02T00:21:09;100651.44;;;7.99;42.51
68807;BME280;55800;54.272;18.558;2023-05-02T00:23:39;100645.28;;;7.97;42.48
68807;BME280;55800;54.272;18.558;2023-05-02T00:26:08;100642.81;;;7.91;42.99
68807;BME280;55800;54.272;18.558;2023-05-02T00:28:43;100641.06;;;7.89;42.66
68807;BME280;55800;54.272;18.558;2023-05-02T00:31:12;100634.09;;;7.85;42.58
68807;BME280;55800;54.272;18.558;2023-05-02T00:33:41;100634.09;;;7.85;42.48
68807;BME280;55800;54.272;18.558;2023-05-02T00:36:13;100629.72;;;7.83;42.42
68807;BME280;55800;54.272;18.558;2023-05-02T00:38:43;100621.84;;;7.80;43.36
68807;BME280;55800;54.272;18.558;2023-05-02T00:41:12;100611.25;;;7.78;43.04
68807;BME280;55800;54.272;18.558;2023-05-02T00:43:42;100614.06;;;7.74;43.00
68807;BME280;55800;54.272;18.558;2023-05-02T00:46:12;100611.44;;;7.72;42.81
68807;BME280;55800;54.272;18.558;2023-05-02T00:48:42;100615.03;;;7.70;42.83
68807;BME280;55800;54.272;18.558;2023-05-02T00:51:12;100609.78;;;7.68;43.35
68807;BME280;55800;54.272;18.558;2023-05-02T00:53:40;100604.56;;;7.65;43.04
68807;BME280;55800;54.272;18.558;2023-05-02T00:56:09;100602.81;;;7.64;43.05
68807;BME280;55800;54.272;18.558;2023-05-02T00:58:39;100601.09;;;7.63;43.24
68807;BME280;55800;54.272;18.558;2023-05-02T01:04:01;100598.50;;;7.60;43.04
68807;BME280;55800;54.272;18.558;2023-05-02T01:06:35;100597.69;;;7.58;43.08
68807;BME280;55800;54.272;18.558;2023-05-02T01:09:13;100594.19;;;7.56;43.13
68807;BME280;55800;54.272;18.558;2023-05-02T01:11:47;100594.19;;;7.56;43.28
68807;BME280;55800;54.272;18.558;2023-05-02T01:14:16;100589.84;;;7.54;43.33
68807;BME280;55800;54.272;18.558;2023-05-02T01:16:47;100592.50;;;7.54;43.38
68807;BME280;55800;54.272;18.558;2023-05-02T01:19:21;100593.44;;;7.51;43.34
68807;BME280;55800;54.272;18.558;2023-05-02T01:21:53;100592.63;;;7.49;43.14
68807;BME280;55800;54.272;18.558;2023-05-02T01:24:24;100590.91;;;7.48;43.24
68807;BME280;55800;54.272;18.558;2023-05-02T01:26:58;100591.84;;;7.46;44.84
68807;BME280;55800;54.272;18.558;2023-05-02T01:29:32;100590.28;;;7.39;46.02
68807;BME280;55800;54.272;18.558;2023-05-02T01:32:02;100584.09;;;7.38;48.08
68807;BME280;55800;54.272;18.558;2023-05-02T01:34:32;100583.19;;;7.39;44.79
68807;BME280;55800;54.272;18.558;2023-05-02T01:37:03;100584.09;;;7.38;44.52
68807;BME280;55800;54.272;18.558;2023-05-02T01:39:34;100579.75;;;7.36;44.36
68807;BME280;55800;54.272;18.558;2023-05-02T01:42:06;100578.06;;;7.33;44.08
68807;BME280;55800;54.272;18.558;2023-05-02T01:44:36;100571.84;;;7.33;43.96
68807;BME280;55800;54.272;18.558;2023-05-02T01:47:06;100563.94;;;7.31;43.82
68807;BME280;55800;54.272;18.558;2023-05-02T01:49:37;100571.06;;;7.29;43.72
68807;BME280;55800;54.272;18.558;2023-05-02T01:52:10;100563.13;;;7.28;43.77
68807;BME280;55800;54.272;18.558;2023-05-02T01:54:39;100565.84;;;7.26;43.43
68807;BME280;55800;54.272;18.558;2023-05-02T01:57:09;100567.63;;;7.26;43.52
68807;BME280;55800;54.272;18.558;2023-05-02T01:59:41;100573.00;;;7.24;43.54
68807;BME280;55800;54.272;18.558;2023-05-02T02:02:11;100559.69;;;7.24;43.83
68807;BME280;55800;54.272;18.558;2023-05-02T02:04:44;100562.41;;;7.23;43.81
68807;BME280;55800;54.272;18.558;2023-05-02T02:07:15;100554.44;;;7.21;43.76
68807;BME280;55800;54.272;18.558;2023-05-02T02:09:44;100557.16;;;7.20;43.69
68807;BME280;55800;54.272;18.558;2023-05-02T02:12:15;100553.63;;;7.19;43.82
68807;BME280;55800;54.272;18.558;2023-05-02T02:14:47;100555.50;;;7.16;44.18
68807;BME280;55800;54.272;18.558;2023-05-02T02:17:21;100544.94;;;7.14;44.52
68807;BME280;55800;54.272;18.558;2023-05-02T02:19:52;100546.66;;;7.15;44.67
68807;BME280;55800;54.272;18.558;2023-05-02T02:22:25;100538.78;;;7.12;44.37
68807;BME280;55800;54.272;18.558;2023-05-02T02:24:55;100539.63;;;7.13;45.81
68807;BME280;55800;54.272;18.558;2023-05-02T02:27:25;100537.91;;;7.12;46.12
68807;BME280;55800;54.272;18.558;2023-05-02T02:29:56;100549.56;;;7.07;45.23
68807;BME280;55800;54.272;18.558;2023-05-02T02:32:25;100543.34;;;7.07;44.87
68807;BME280;55800;54.272;18.558;2023-05-02T02:34:55;100542.53;;;7.05;44.75
68807;BME280;55800;54.272;18.558;2023-05-02T02:37:25;100549.59;;;7.06;44.91
68807;BME280;55800;54.272;18.558;2023-05-02T02:39:59;100544.28;;;7.06;44.85
68807;BME280;55800;54.272;18.558;2023-05-02T02:42:32;100551.34;;;7.07;44.70
68807;BME280;55800;54.272;18.558;2023-05-02T02:45:15;100539.81;;;7.08;45.63
68807;BME280;55800;54.272;18.558;2023-05-02T02:47:48;100538.91;;;7.07;44.84
68807;BME280;55800;54.272;18.558;2023-05-02T02:50:19;100533.59;;;7.07;44.74
68807;BME280;55800;54.272;18.558;2023-05-02T02:52:52;100530.00;;;7.08;44.71
68807;BME280;55800;54.272;18.558;2023-05-02T02:55:25;100528.22;;;7.09;44.63
68807;BME280;55800;54.272;18.558;2023-05-02T02:57:58;100523.81;;;7.09;44.69
68807;BME280;55800;54.272;18.558;2023-05-02T03:00:29;100533.50;;;7.10;44.61
68807;BME280;55800;54.272;18.558;2023-05-02T03:03:00;100530.00;;;7.10;44.84
68807;BME280;55800;54.272;18.558;2023-05-02T03:05:29;100532.59;;;7.12;44.70
68807;BME280;55800;54.272;18.558;2023-05-02T03:08:00;100530.84;;;7.10;44.70
68807;BME280;55800;54.272;18.558;2023-05-02T03:10:29;100530.81;;;7.12;45.24
68807;BME280;55800;54.272;18.558;2023-05-02T03:13:00;100534.31;;;7.13;45.13
68807;BME280;55800;54.272;18.558;2023-05-02T03:18:29;100529.88;;;7.13;45.20
68807;BME280;55800;54.272;18.558;2023-05-02T03:20:58;100533.47;;;7.12;44.93
68807;BME280;55800;54.272;18.558;2023-05-02T03:23:28;100530.81;;;7.12;46.21
68807;BME280;55800;54.272;18.558;2023-05-02T03:25:57;100531.72;;;7.11;45.85
68807;BME280;55800;54.272;18.558;2023-05-02T03:28:26;100531.53;;;7.17;48.16
68807;BME280;55800;54.272;18.558;2023-05-02T03:30:55;100528.06;;;7.15;45.90
68807;BME280;55800;54.272;18.558;2023-05-02T03:33:24;100532.53;;;7.15;46.12
68807;BME280;55800;54.272;18.558;2023-05-02T03:35:55;100528.84;;;7.19;46.94
68807;BME280;55800;54.272;18.558;2023-05-02T03:38:24;100527.88;;;7.21;46.47
68807;BME280;55800;54.272;18.558;2023-05-02T03:40:55;100534.94;;;7.22;47.34
68807;BME280;55800;54.272;18.558;2023-05-02T03:43:25;100530.38;;;7.26;47.47
68807;BME280;55800;54.272;18.558;2023-05-02T03:45:55;100528.41;;;7.32;51.84
68807;BME280;55800;54.272;18.558;2023-05-02T03:48:25;100531.72;;;7.40;51.85
68807;BME280;55800;54.272;18.558;2023-05-02T03:50:56;100530.81;;;7.41;48.51
68807;BME280;55800;54.272;18.558;2023-05-02T03:53:25;100529.06;;;7.40;47.22
68807;BME280;55800;54.272;18.558;2023-05-02T03:55:57;100527.28;;;7.41;46.70
68807;BME280;55800;54.272;18.558;2023-05-02T03:58:38;100535.19;;;7.44;46.60
68807;BME280;55800;54.272;18.558;2023-05-02T04:01:12;100540.34;;;7.48;46.31
68807;BME280;55800;54.272;18.558;2023-05-02T04:03:43;100547.28;;;7.54;46.33
68807;BME280;55800;54.272;18.558;2023-05-02T04:06:15;100537.41;;;7.57;45.92
68807;BME280;55800;54.272;18.558;2023-05-02T04:08:49;100538.97;;;7.64;45.96
68807;BME280;55800;54.272;18.558;2023-05-02T04:11:18;100545.91;;;7.68;45.95
68807;BME280;55800;54.272;18.558;2023-05-02T04:13:48;100540.47;;;7.73;45.81
68807;BME280;55800;54.272;18.558;2023-05-02T04:16:20;100534.06;;;7.78;45.69
68807;BME280;55800;54.272;18.558;2023-05-02T04:18:50;100538.34;;;7.82;45.79
68807;BME280;55800;54.272;18.558;2023-05-02T04:21:20;100547.09;;;7.87;45.80
68807;BME280;55800;54.272;18.558;2023-05-02T04:23:50;100545.16;;;7.93;46.90
68807;BME280;55800;54.272;18.558;2023-05-02T04:26:19;100549.41;;;7.98;46.86
68807;BME280;55800;54.272;18.558;2023-05-02T04:28:59;100548.38;;;8.02;45.94
68807;BME280;55800;54.272;18.558;2023-05-02T04:31:29;100554.44;;;8.07;46.22
68807;BME280;55800;54.272;18.558;2023-05-02T04:33:59;100561.34;;;8.13;48.82
68807;BME280;55800;54.272;18.558;2023-05-02T04:36:37;100558.47;;;8.19;46.53
68807;BME280;55800;54.272;18.558;2023-05-02T04:39:09;100556.53;;;8.24;46.26
68807;BME280;55800;54.272;18.558;2023-05-02T04:41:44;100555.47;;;8.29;46.92
68807;BME280;55800;54.272;18.558;2023-05-02T04:44:14;100557.16;;;8.33;46.30
68807;BME280;55800;54.272;18.558;2023-05-02T04:46:44;100560.50;;;8.38;46.28
68807;BME280;55800;54.272;18.558;2023-05-02T04:49:15;100557.69;;;8.43;45.77
68807;BME280;55800;54.272;18.558;2023-05-02T04:51:45;100570.78;;;8.49;46.13
68807;BME280;55800;54.272;18.558;2023-05-02T04:54:15;100567.91;;;8.55;45.82
68807;BME280;55800;54.272;18.558;2023-05-02T04:56:44;100567.69;;;8.61;46.56
68807;BME280;55800;54.272;18.558;2023-05-02T04:59:14;100567.53;;;8.67;46.01
68807;BME280;55800;54.272;18.558;2023-05-02T05:01:43;100569.03;;;8.74;46.43
68807;BME280;55800;54.272;18.558;2023-05-02T05:04:13;100571.44;;;8.82;46.10
68807;BME280;55800;54.272;18.558;2023-05-02T05:06:42;100573.75;;;8.91;45.83
68807;BME280;55800;54.272;18.558;2023-05-02T05:09:13;100568.09;;;9.00;45.78
68807;BME280;55800;54.272;18.558;2023-05-02T05:11:43;100574.91;;;9.08;45.84
68807;BME280;55800;54.272;18.558;2023-05-02T05:14:14;100563.91;;;9.17;45.66
68807;BME280;55800;54.272;18.558;2023-05-02T05:16:46;100553.81;;;9.25;45.59
68807;BME280;55800;54.272;18.558;2023-05-02T05:19:16;100567.63;;;9.36;46.35
68807;BME280;55800;54.272;18.558;2023-05-02T05:21:44;100561.81;;;9.49;47.58
68807;BME280;55800;54.272;18.558;2023-05-02T05:24:18;100563.19;;;9.59;47.14
68807;BME280;55800;54.272;18.558;2023-05-02T05:26:48;100569.88;;;9.70;48.91
68807;BME280;55800;54.272;18.558;2023-05-02T05:29:17;100562.16;;;9.84;52.74
68807;BME280;55800;54.272;18.558;2023-05-02T05:31:46;100568.66;;;10.00;51.19
68807;BME280;55800;54.272;18.558;2023-05-02T05:34:18;100574.31;;;10.14;52.32
68807;BME280;55800;54.272;18.558;2023-05-02T05:36:52;100569.97;;;10.34;53.44
68807;BME280;55800;54.272;18.558;2023-05-02T05:39:26;100570.88;;;10.54;50.54
68807;BME280;55800;54.272;18.558;2023-05-02T05:41:57;100572.22;;;10.64;52.07
68807;BME280;55800;54.272;18.558;2023-05-02T05:44:27;100584.88;;;10.81;51.17
68807;BME280;55800;54.272;18.558;2023-05-02T05:46:57;100584.13;;;10.97;51.61
68807;BME280;55800;54.272;18.558;2023-05-02T05:49:27;100578.03;;;11.14;51.67
68807;BME280;55800;54.272;18.558;2023-05-02T05:51:56;100582.78;;;11.28;51.02
68807;BME280;55800;54.272;18.558;2023-05-02T05:54:27;100579.44;;;11.41;51.50
68807;BME280;55800;54.272;18.558;2023-05-02T05:56:59;100581.50;;;11.55;51.41
68807;BME280;55800;54.272;18.558;2023-05-02T05:59:30;100583.56;;;11.68;51.42
68807;BME280;55800;54.272;18.558;2023-05-02T06:02:02;100587.34;;;11.83;51.09
68807;BME280;55800;54.272;18.558;2023-05-02T06:04:32;100587.53;;;11.97;50.98
68807;BME280;55800;54.272;18.558;2023-05-02T06:07:01;100594.06;;;12.10;50.82
68807;BME280;55800;54.272;18.558;2023-05-02T06:09:32;100584.69;;;12.19;50.46
68807;BME280;55800;54.272;18.558;2023-05-02T06:12:01;100596.63;;;12.30;50.00
68807;BME280;55800;54.272;18.558;2023-05-02T06:14:32;100600.59;;;12.40;50.33
68807;BME280;55800;54.272;18.558;2023-05-02T06:17:01;100602.81;;;12.49;49.90
68807;BME280;55800;54.272;18.558;2023-05-02T06:19:30;100601.56;;;12.57;49.62
68807;BME280;55800;54.272;18.558;2023-05-02T06:21:59;100609.94;;;12.68;49.54
68807;BME280;55800;54.272;18.558;2023-05-02T06:24:28;100619.41;;;12.75;49.37
68807;BME280;55800;54.272;18.558;2023-05-02T06:27:00;100616.25;;;12.84;49.25
68807;BME280;55800;54.272;18.558;2023-05-02T06:29:29;100615.88;;;12.91;49.07
68807;BME280;55800;54.272;18.558;2023-05-02T06:31:58;100619.91;;;13.00;49.08
68807;BME280;55800;54.272;18.558;2023-05-02T06:34:27;100625.00;;;13.06;48.89
68807;BME280;55800;54.272;18.558;2023-05-02T06:36:56;100625.44;;;13.14;48.74
68807;BME280;55800;54.272;18.558;2023-05-02T06:39:25;100631.47;;;13.19;48.63
68807;BME280;55800;54.272;18.558;2023-05-02T06:41:55;100630.06;;;13.27;48.39
68807;BME280;55800;54.272;18.558;2023-05-02T06:44:28;100636.88;;;13.35;48.33
68807;BME280;55800;54.272;18.558;2023-05-02T06:46:57;100640.88;;;13.43;48.38
68807;BME280;55800;54.272;18.558;2023-05-02T06:49:26;100635.19;;;13.49;48.09
68807;BME280;55800;54.272;18.558;2023-05-02T06:51:55;100641.97;;;13.56;48.18
68807;BME280;55800;54.272;18.558;2023-05-02T06:54:24;100649.59;;;13.64;48.10
68807;BME280;55800;54.272;18.558;2023-05-02T06:56:53;100643.06;;;13.69;48.12
68807;BME280;55800;54.272;18.558;2023-05-02T06:59:22;100648.09;;;13.75;48.12
68807;BME280;55800;54.272;18.558;2023-05-02T07:01:52;100651.41;;;13.80;47.81
68807;BME280;55800;54.272;18.558;2023-05-02T07:04:22;100647.41;;;13.87;47.96
68807;BME280;55800;54.272;18.558;2023-05-02T07:06:52;100656.88;;;13.94;47.80
68807;BME280;55800;54.272;18.558;2023-05-02T07:09:21;100665.47;;;14.01;47.66
68807;BME280;55800;54.272;18.558;2023-05-02T07:11:50;100663.31;;;14.07;47.54
68807;BME280;55800;54.272;18.558;2023-05-02T07:14:19;100680.03;;;14.13;47.43
68807;BME280;55800;54.272;18.558;2023-05-02T07:16:48;100674.34;;;14.19;47.39
68807;BME280;55800;54.272;18.558;2023-05-02T07:19:19;100675.81;;;14.24;47.46
68807;BME280;55800;54.272;18.558;2023-05-02T07:21:48;100680.78;;;14.32;47.38
68807;BME280;55800;54.272;18.558;2023-05-02T07:24:17;100684.88;;;14.39;47.21
68807;BME280;55800;54.272;18.558;2023-05-02T07:26:46;100678.00;;;14.49;47.44
68807;BME280;55800;54.272;18.558;2023-05-02T07:29:15;100679.41;;;14.56;47.55
68807;BME280;55800;54.272;18.558;2023-05-02T07:31:44;100684.09;;;14.68;47.36
68807;BME280;55800;54.272;18.558;2023-05-02T07:34:13;100689.97;;;14.74;47.42
68807;BME280;55800;54.272;18.558;2023-05-02T07:36:44;100693.97;;;14.83;47.39
68807;BME280;55800;54.272;18.558;2023-05-02T07:39:13;100701.31;;;14.95;47.28
68807;BME280;55800;54.272;18.558;2023-05-02T07:41:42;100703.47;;;15.04;47.45
68807;BME280;55800;54.272;18.558;2023-05-02T07:44:11;100713.72;;;15.13;46.48
68807;BME280;55800;54.272;18.558;2023-05-02T07:46:40;100708.84;;;15.20;46.41
68807;BME280;55800;54.272;18.558;2023-05-02T07:49:09;100707.53;;;15.27;46.47
68807;BME280;55800;54.272;18.558;2023-05-02T07:51:41;100711.47;;;15.35;46.37
68807;BME280;55800;54.272;18.558;2023-05-02T07:54:17;100719.22;;;15.41;45.33
68807;BME280;55800;54.272;18.558;2023-05-02T07:56:46;100714.63;;;15.43;45.02
68807;BME280;55800;54.272;18.558;2023-05-02T07:59:17;100718.09;;;15.45;44.88
68807;BME280;55800;54.272;18.558;2023-05-02T08:01:46;100726.19;;;15.45;44.46
68807;BME280;55800;54.272;18.558;2023-05-02T08:04:15;100723.38;;;15.47;44.65
68807;BME280;55800;54.272;18.558;2023-05-02T08:06:45;100730.16;;;15.54;44.95
68807;BME280;55800;54.272;18.558;2023-05-02T08:09:14;100730.66;;;15.60;44.98
68807;BME280;55800;54.272;18.558;2023-05-02T08:11:44;100730.53;;;15.62;44.87
68807;BME280;55800;54.272;18.558;2023-05-02T08:14:14;100731.22;;;15.66;44.73
68807;BME280;55800;54.272;18.558;2023-05-02T08:16:43;100730.00;;;15.71;44.96
68807;BME280;55800;54.272;18.558;2023-05-02T08:19:13;100731.25;;;15.80;44.98
68807;BME280;55800;54.272;18.558;2023-05-02T08:21:42;100739.72;;;15.88;44.69
68807;BME280;55800;54.272;18.558;2023-05-02T08:24:11;100732.97;;;15.95;44.69
68807;BME280;55800;54.272;18.558;2023-05-02T08:26:40;100735.97;;;16.04;44.97
68807;BME280;55800;54.272;18.558;2023-05-02T08:29:11;100735.13;;;16.18;44.93
68807;BME280;55800;54.272;18.558;2023-05-02T08:31:40;100731.66;;;16.30;44.62
68807;BME280;55800;54.272;18.558;2023-05-02T08:34:09;100725.47;;;16.42;45.10
68807;BME280;55800;54.272;18.558;2023-05-02T08:36:38;100732.78;;;16.54;44.87
68807;BME280;55800;54.272;18.558;2023-05-02T08:39:08;100727.69;;;16.64;43.83
68807;BME280;55800;54.272;18.558;2023-05-02T08:41:37;100736.72;;;16.77;43.57
68807;BME280;55800;54.272;18.558;2023-05-02T08:44:06;100737.59;;;16.77;41.53
68807;BME280;55800;54.272;18.558;2023-05-02T08:46:36;100739.13;;;16.81;40.82
68807;BME280;55800;54.272;18.558;2023-05-02T08:49:10;100747.56;;;16.89;41.08
68807;BME280;55800;54.272;18.558;2023-05-02T08:51:39;100753.53;;;16.94;40.44
68807;BME280;55800;54.272;18.558;2023-05-02T08:54:09;100757.09;;;16.95;39.63
68807;BME280;55800;54.272;18.558;2023-05-02T08:56:38;100757.78;;;16.98;39.90
68807;BME280;55800;54.272;18.558;2023-05-02T08:59:09;100758.25;;;17.05;39.92
68807;BME280;55800;54.272;18.558;2023-05-02T09:01:39;100762.13;;;17.13;40.00
68807;BME280;55800;54.272;18.558;2023-05-02T09:04:09;100770.63;;;17.22;39.47
68807;BME280;55800;54.272;18.558;2023-05-02T09:06:38;100769.22;;;17.29;40.01
68807;BME280;55800;54.272;18.558;2023-05-02T09:09:08;100777.59;;;17.38;38.72
68807;BME280;55800;54.272;18.558;2023-05-02T09:11:36;100773.91;;;17.39;38.58
68807;BME280;55800;54.272;18.558;2023-05-02T09:14:12;100776.41;;;17.42;37.94
68807;BME280;55800;54.272;18.558;2023-05-02T09:16:43;100778.94;;;17.45;38.12
68807;BME280;55800;54.272;18.558;2023-05-02T09:19:22;100783.94;;;17.51;37.92
68807;BME280;55800;54.272;18.558;2023-05-02T09:21:51;100783.53;;;17.57;38.27
68807;BME280;55800;54.272;18.558;2023-05-02T09:24:21;100790.03;;;17.67;38.42
68807;BME280;55800;54.272;18.558;2023-05-02T09:26:57;100787.47;;;17.78;38.54
68807;BME280;55800;54.272;18.558;2023-05-02T09:29:26;100800.03;;;17.92;38.38
68807;BME280;55800;54.272;18.558;2023-05-02T09:31:58;100802.53;;;17.95;37.70
68807;BME280;55800;54.272;18.558;2023-05-02T09:34:27;100795.94;;;17.99;38.28
68807;BME280;55800;54.272;18.558;2023-05-02T09:36:57;100793.53;;;18.07;37.93
68807;BME280;55800;54.272;18.558;2023-05-02T09:39:26;100811.72;;;18.18;38.19
68807;BME280;55800;54.272;18.558;2023-05-02T09:41:56;100816.94;;;18.21;38.17
68807;BME280;55800;54.272;18.558;2023-05-02T09:44:34;100828.97;;;18.29;38.54
68807;BME280;55800;54.272;18.558;2023-05-02T09:47:05;100817.59;;;18.37;38.23
68807;BME280;55800;54.272;18.558;2023-05-02T09:49:39;100819.00;;;18.42;38.06
68807;BME280;55800;54.272;18.558;2023-05-02T09:52:09;100836.22;;;18.41;38.30
68807;BME280;55800;54.272;18.558;2023-05-02T09:54:38;100842.81;;;18.37;38.42
68807;BME280;55800;54.272;18.558;2023-05-02T09:57:08;100846.16;;;18.41;38.64
68807;BME280;55800;54.272;18.558;2023-05-02T09:59:38;100846.00;;;18.44;38.82
68807;BME280;55800;54.272;18.558;2023-05-02T10:02:09;100853.81;;;18.48;39.31
68807;BME280;55800;54.272;18.558;2023-05-02T10:04:40;100849.63;;;18.43;39.62
68807;BME280;55800;54.272;18.558;2023-05-02T10:07:09;100857.22;;;18.38;39.89
68807;BME280;55800;54.272;18.558;2023-05-02T10:09:41;100869.91;;;18.37;40.27
68807;BME280;55800;54.272;18.558;2023-05-02T10:12:13;100858.59;;;18.45;40.85
68807;BME280;55800;54.272;18.558;2023-05-02T10:14:45;100875.00;;;18.42;41.05
68807;BME280;55800;54.272;18.558;2023-05-02T10:17:21;100880.25;;;18.45;41.70
68807;BME280;55800;54.272;18.558;2023-05-02T10:19:53;100881.75;;;18.49;42.27
68807;BME280;55800;54.272;18.558;2023-05-02T10:22:23;100897.31;;;18.45;42.84
68807;BME280;55800;54.272;18.558;2023-05-02T10:24:53;100893.38;;;18.37;43.22
68807;BME280;55800;54.272;18.558;2023-05-02T10:27:28;100898.16;;;18.33;43.59
68807;BME280;55800;54.272;18.558;2023-05-02T10:29:57;100900.09;;;18.31;43.92
68807;BME280;55800;54.272;18.558;2023-05-02T10:32:28;100907.16;;;18.34;44.10
68807;BME280;55800;54.272;18.558;2023-05-02T10:35:01;100898.16;;;18.33;44.47
68807;BME280;55800;54.272;18.558;2023-05-02T10:37:35;100901.06;;;18.30;45.06
68807;BME280;55800;54.272;18.558;2023-05-02T10:40:08;100898.47;;;18.41;45.11
68807;BME280;55800;54.272;18.558;2023-05-02T10:42:39;100899.34;;;18.42;44.48
68807;BME280;55800;54.272;18.558;2023-05-02T10:45:10;100912.34;;;18.37;45.02
68807;BME280;55800;54.272;18.558;2023-05-02T10:47:41;100914.41;;;18.33;44.49
68807;BME280;55800;54.272;18.558;2023-05-02T10:50:11;100918.50;;;18.26;44.44
68807;BME280;55800;54.272;18.558;2023-05-02T10:52:40;100914.59;;;18.30;44.79
68807;BME280;55800;54.272;18.558;2023-05-02T10:55:17;100928.56;;;18.24;44.51
68807;BME280;55800;54.272;18.558;2023-05-02T11:00:35;100939.03;;;18.16;43.92
68807;BME280;55800;54.272;18.558;2023-05-02T11:03:05;100942.59;;;18.04;44.39
68807;BME280;55800;54.272;18.558;2023-05-02T11:05:37;100943.78;;;18.00;44.57
68807;BME280;55800;54.272;18.558;2023-05-02T11:08:30;100948.16;;;17.88;44.48
68807;BME280;55800;54.272;18.558;2023-05-02T11:13:52;100962.03;;;17.70;44.95
68807;BME280;55800;54.272;18.558;2023-05-02T11:16:21;100965.56;;;17.58;45.43
68807;BME280;55800;54.272;18.558;2023-05-02T11:18:57;100964.09;;;17.52;46.00
68807;BME280;55800;54.272;18.558;2023-05-02T11:21:28;100973.09;;;17.53;46.34
68807;BME280;55800;54.272;18.558;2023-05-02T11:26:47;100990.63;;;17.46;46.87
68807;BME280;55800;54.272;18.558;2023-05-02T11:32:01;101011.69;;;17.41;47.55
68807;BME280;55800;54.272;18.558;2023-05-02T11:34:43;101014.59;;;17.38;47.78
68807;BME280;55800;54.272;18.558;2023-05-02T11:37:13;101026.94;;;17.28;48.38
68807;BME280;55800;54.272;18.558;2023-05-02T11:39:43;101028.50;;;17.17;48.61
68807;BME280;55800;54.272;18.558;2023-05-02T11:42:28;101025.97;;;17.14;48.78
68807;BME280;55800;54.272;18.558;2023-05-02T11:44:58;101039.09;;;17.21;48.35
68807;BME280;55800;54.272;18.558;2023-05-02T11:47:31;101039.88;;;17.23;48.68
68807;BME280;55800;54.272;18.558;2023-05-02T11:50:04;101044.88;;;17.14;48.63
68807;BME280;55800;54.272;18.558;2023-05-02T11:52:36;101055.09;;;16.95;48.94
68807;BME280;55800;54.272;18.558;2023-05-02T11:55:05;101065.09;;;16.79;49.44
68807;BME280;55800;54.272;18.558;2023-05-02T11:57:38;101073.84;;;16.69;49.54
68807;BME280;55800;54.272;18.558;2023-05-02T12:00:08;101077.34;;;16.55;50.24
68807;BME280;55800;54.272;18.558;2023-05-02T12:02:41;101081.91;;;16.39;51.23
68807;BME280;55800;54.272;18.558;2023-05-02T12:05:12;101085.91;;;16.32;51.83
68807;BME280;55800;54.272;18.558;2023-05-02T12:07:42;101106.25;;;16.37;52.06
68807;BME280;55800;54.272;18.558;2023-05-02T12:10:12;101105.22;;;16.40;51.81
68807;BME280;55800;54.272;18.558;2023-05-02T12:12:42;101111.66;;;16.37;52.60
68807;BME280;55800;54.272;18.558;2023-05-02T12:15:11;101120.97;;;16.32;52.75
68807;BME280;55800;54.272;18.558;2023-05-02T12:17:41;101116.63;;;16.29;52.67
68807;BME280;55800;54.272;18.558;2023-05-02T12:20:12;101108.38;;;16.32;52.32
68807;BME280;55800;54.272;18.558;2023-05-02T12:22:42;101114.44;;;16.36;52.46
68807;BME280;55800;54.272;18.558;2023-05-02T12:25:11;101114.06;;;16.42;51.73
68807;BME280;55800;54.272;18.558;2023-05-02T12:27:40;101127.00;;;16.37;51.82
68807;BME280;55800;54.272;18.558;2023-05-02T12:30:11;101126.38;;;16.32;51.90
68807;BME280;55800;54.272;18.558;2023-05-02T12:32:56;101139.00;;;16.16;51.81
68807;BME280;55800;54.272;18.558;2023-05-02T12:35:27;101147.16;;;16.14;51.50
68807;BME280;55800;54.272;18.558;2023-05-02T12:38:06;101151.09;;;16.09;51.57
68807;BME280;55800;54.272;18.558;2023-05-02T12:40:36;101154.63;;;15.94;52.13
68807;BME280;55800;54.272;18.558;2023-05-02T12:43:06;101158.97;;;15.81;51.96
68807;BME280;55800;54.272;18.558;2023-05-02T12:45:37;101155.81;;;15.73;52.33
68807;BME280;55800;54.272;18.558;2023-05-02T12:48:16;101171.38;;;15.68;52.75
68807;BME280;55800;54.272;18.558;2023-05-02T12:50:47;101176.47;;;15.56;52.96
68807;BME280;55800;54.272;18.558;2023-05-02T12:53:17;101184.19;;;15.47;53.29
68807;BME280;55800;54.272;18.558;2023-05-02T12:55:46;101189.22;;;15.36;53.19
68807;BME280;55800;54.272;18.558;2023-05-02T12:58:15;101193.50;;;15.23;53.71
68807;BME280;55800;54.272;18.558;2023-05-02T13:00:44;101192.69;;;15.21;53.19
68807;BME280;55800;54.272;18.558;2023-05-02T13:03:14;101201.03;;;14.99;52.96
68807;BME280;55800;54.272;18.558;2023-05-02T13:05:44;101198.88;;;14.89;53.09
68807;BME280;55800;54.272;18.558;2023-05-02T13:08:14;101210.03;;;14.81;53.18
68807;BME280;55800;54.272;18.558;2023-05-02T13:10:43;101205.03;;;14.73;52.86
68807;BME280;55800;54.272;18.558;2023-05-02T13:13:12;101211.88;;;14.62;52.76
68807;BME280;55800;54.272;18.558;2023-05-02T13:15:42;101220.34;;;14.54;53.31
68807;BME280;55800;54.272;18.558;2023-05-02T13:18:11;101232.72;;;14.40;54.13